Time;durP1;ratioP1;P1;durP2;ratioP2;P2;SDS_P1;SDS_P2;PMS_P1;PMS_P2;Temp;Humidity;BMP_temperature;BMP_pressure;BME280_temperature;BME280_humidity;BME280_pressure;Samples;Min_cycle;Max_cycle;Signal;HPM_P1;HPM_P2
2023/01/26 00:01:59;;;;;;;;;8.60;6.80;;;;;0.14;83.18;100756.03;5116948;28;8889;-61
2023/01/26 00:04:26;;;;;;;;;12.40;11.20;;;;;0.13;83.27;100749.06;5116680;28;8866;-61
2023/01/26 00:06:54;;;;;;;;;15.60;15.00;;;;;0.12;83.07;100744.75;5116931;28;8832;-59
2023/01/26 00:09:22;;;;;;;;;11.00;10.20;;;;;0.12;82.69;100737.75;5117001;28;8800;-60
2023/01/26 00:11:50;;;;;;;;;4.80;4.80;;;;;0.17;82.90;100738.47;5116183;28;8812;-60
2023/01/26 00:14:18;;;;;;;;;15.80;12.40;;;;;0.17;83.62;100748.97;5116127;28;8828;-60
2023/01/26 00:16:45;;;;;;;;;9.20;8.20;;;;;0.17;83.09;100738.47;5116265;28;8831;-61
2023/01/26 00:19:13;;;;;;;;;6.80;6.00;;;;;0.14;83.20;100743.81;5115543;28;8812;-61
2023/01/26 00:21:40;;;;;;;;;8.80;7.40;;;;;0.12;82.79;100737.75;5116880;28;8827;-60
2023/01/26 00:24:09;;;;;;;;;9.00;8.00;;;;;0.11;83.40;100733.44;5116134;28;8839;-61
2023/01/26 00:26:36;;;;;;;;;8.80;8.00;;;;;0.11;83.17;100728.19;5116081;28;8832;-60
2023/01/26 00:29:04;;;;;;;;;11.40;9.60;;;;;0.15;83.14;100728.94;5115846;28;8924;-58
2023/01/26 00:31:32;;;;;;;;;8.60;8.60;;;;;0.16;83.17;100715.81;5115874;28;8824;-60
2023/01/26 00:33:59;;;;;;;;;18.20;15.40;;;;;0.19;82.92;100720.13;5116080;28;8820;-60
2023/01/26 00:36:29;;;;;;;;;16.80;13.40;;;;;0.24;82.27;100713.88;5116363;28;8816;-61
2023/01/26 00:38:57;;;;;;;;;5.60;3.60;;;;;0.26;82.45;100709.47;5115732;28;8812;-58
2023/01/26 00:44:10;;;;;;;;;15.00;13.60;;;;;0.26;83.07;100706.88;5116081;28;8846;-60
2023/01/26 00:46:38;;;;;;;;;12.80;10.80;;;;;0.30;83.22;100705.00;5116162;28;8815;-59
2023/01/26 00:49:05;;;;;;;;;12.00;10.80;;;;;0.30;82.67;100694.50;5115972;28;8816;-59
2023/01/26 00:51:33;;;;;;;;;12.40;11.60;;;;;0.30;82.81;100690.16;5116164;28;8876;-59
2023/01/26 00:54:01;;;;;;;;;14.20;13.00;;;;;0.32;82.64;100687.50;5116424;28;8839;-59
2023/01/26 00:56:29;;;;;;;;;7.40;6.40;;;;;0.27;82.82;100671.03;5116143;28;8843;-61
2023/01/26 00:58:57;;;;;;;;;13.40;12.40;;;;;0.22;82.65;100668.56;5116341;28;8808;-62
2023/01/26 01:01:24;;;;;;;;;12.40;9.20;;;;;0.19;82.70;100668.66;5116147;28;8828;-60
2023/01/26 01:03:52;;;;;;;;;12.80;12.80;;;;;0.18;82.79;100659.03;5116017;28;8850;-61
2023/01/26 01:06:19;;;;;;;;;17.40;15.60;;;;;0.17;82.54;100651.25;5115855;28;8870;-59
2023/01/26 01:08:47;;;;;;;;;12.60;10.40;;;;;0.17;83.45;100654.72;5115924;28;8804;-61
2023/01/26 01:11:15;;;;;;;;;18.40;15.40;;;;;0.14;82.85;100654.81;5115439;28;8808;-59
2023/01/26 01:13:43;;;;;;;;;9.60;9.60;;;;;0.09;83.07;100651.44;5115901;28;8816;-61
2023/01/26 01:16:10;;;;;;;;;13.60;9.40;;;;;0.07;83.46;100655.88;5115721;28;8835;-61
2023/01/26 01:18:38;;;;;;;;;3.80;3.80;;;;;0.05;83.05;100655.06;5115431;28;8967;-62
2023/01/26 01:21:06;;;;;;;;;1.00;0.60;;;;;0.05;82.75;100656.78;5116295;28;9497;-61
2023/01/26 01:23:34;;;;;;;;;4.00;3.20;;;;;0.06;83.22;100653.28;5116026;28;8820;-60
2023/01/26 01:26:02;;;;;;;;;13.40;12.20;;;;;0.04;83.35;100645.47;5116013;28;8831;-61
2023/01/26 01:28:29;;;;;;;;;9.80;9.20;;;;;0.04;82.67;100650.72;5115414;28;8823;-59
2023/01/26 01:30:57;;;;;;;;;14.20;11.60;;;;;0.02;82.71;100649.88;5117484;28;8804;-61
2023/01/26 01:33:25;;;;;;;;;15.60;13.00;;;;;0.00;82.90;100662.16;5120447;28;8841;-62
2023/01/26 01:35:53;;;;;;;;;7.00;7.00;;;;;-0.02;82.75;100645.63;5120204;28;8862;-61
2023/01/26 01:38:21;;;;;;;;;18.20;12.80;;;;;-0.06;83.03;100654.44;5119381;28;8816;-61
2023/01/26 01:40:49;;;;;;;;;12.40;10.60;;;;;-0.06;83.09;100656.22;5119991;28;8911;-60
2023/01/26 01:43:17;;;;;;;;;5.60;3.40;;;;;-0.09;83.53;100652.81;5119491;28;8816;-61
2023/01/26 01:45:44;;;;;;;;;9.80;8.20;;;;;-0.12;83.31;100644.13;5119526;28;8836;-60
2023/01/26 01:48:12;;;;;;;;;8.20;7.40;;;;;-0.13;83.31;100642.41;5119368;28;8808;-59
2023/01/26 01:50:39;;;;;;;;;10.80;10.00;;;;;-0.15;83.21;100639.88;5119784;28;8847;-59
2023/01/26 01:53:07;;;;;;;;;9.40;9.00;;;;;-0.15;83.26;100645.13;5119626;28;9485;-61
2023/01/26 01:55:35;;;;;;;;;9.80;7.60;;;;;-0.17;83.13;100637.31;5119615;28;8813;-61
2023/01/26 01:58:02;;;;;;;;;8.60;7.60;;;;;-0.17;83.04;100634.69;5119651;28;8804;-61
2023/01/26 02:00:30;;;;;;;;;11.20;6.80;;;;;-0.17;83.35;100634.69;5119360;28;9495;-61
2023/01/26 02:03:18;;;;;;;;;7.00;4.60;;;;;-0.15;83.31;100632.91;5119393;28;8820;-61
2023/01/26 02:05:46;;;;;;;;;8.00;7.80;;;;;-0.14;83.51;100618.94;5119514;28;8836;-62
2023/01/26 02:08:13;;;;;;;;;6.20;4.40;;;;;-0.15;83.25;100611.97;5119016;28;8808;-60
2023/01/26 02:10:41;;;;;;;;;5.60;5.20;;;;;-0.15;83.07;100608.50;5119565;28;8796;-61
2023/01/26 02:13:08;;;;;;;;;8.60;7.80;;;;;-0.16;82.94;100605.00;5119151;28;8824;-59
2023/01/26 02:15:36;;;;;;;;;15.60;11.60;;;;;-0.17;83.35;100607.69;5119284;28;8832;-60
2023/01/26 02:18:04;;;;;;;;;9.20;9.20;;;;;-0.18;83.36;100611.19;5119418;28;8784;-59
2023/01/26 02:20:32;;;;;;;;;7.20;6.60;;;;;-0.18;83.60;100608.59;5119038;28;8885;-60
2023/01/26 02:22:59;;;;;;;;;7.40;7.00;;;;;-0.17;82.84;100602.44;5119234;28;8812;-59
2023/01/26 02:25:27;;;;;;;;;11.40;10.20;;;;;-0.15;83.03;100598.91;5119034;28;8844;-59
2023/01/26 02:27:55;;;;;;;;;7.20;6.40;;;;;-0.15;83.50;100596.28;5118153;28;8800;-60
2023/01/26 02:30:24;;;;;;;;;8.60;6.20;;;;;-0.13;83.24;100596.22;5119308;28;8842;-59
2023/01/26 02:32:51;;;;;;;;;11.40;9.80;;;;;-0.15;83.47;100596.28;5118754;28;8893;-61
2023/01/26 02:35:19;;;;;;;;;5.40;4.60;;;;;-0.16;83.20;100589.31;5118756;28;8836;-60
2023/01/26 02:37:47;;;;;;;;;12.00;10.00;;;;;-0.16;83.23;100586.69;5118382;28;8832;-59
2023/01/26 02:40:14;;;;;;;;;10.60;9.80;;;;;-0.13;83.30;100593.59;5118924;28;8808;-61
2023/01/26 02:42:42;;;;;;;;;4.60;3.60;;;;;-0.13;83.06;100590.09;5118341;28;8811;-59
2023/01/26 02:45:09;;;;;;;;;5.20;5.00;;;;;-0.12;83.33;100583.94;5119120;28;8840;-59
2023/01/26 02:47:39;;;;;;;;;13.40;11.60;;;;;-0.09;82.81;100587.41;5119133;28;8832;-61
2023/01/26 02:50:06;;;;;;;;;6.80;6.80;;;;;-0.05;83.24;100593.34;5118262;28;8812;-59
2023/01/26 02:52:33;;;;;;;;;6.00;4.20;;;;;-0.05;82.94;100582.88;5118944;28;8815;-60
2023/01/26 02:57:47;;;;;;;;;9.00;7.40;;;;;0.00;83.06;100595.88;5117619;28;8836;-60
2023/01/26 03:00:14;;;;;;;;;11.80;7.00;;;;;0.00;82.76;100590.66;5106408;28;8846;-60
2023/01/26 03:02:42;;;;;;;;;12.00;9.80;;;;;0.01;82.92;100597.59;5117894;28;8855;-61
2023/01/26 03:05:10;;;;;;;;;5.60;4.40;;;;;0.00;83.07;100582.78;5118013;28;8832;-60
2023/01/26 03:07:37;;;;;;;;;12.20;7.40;;;;;0.01;83.34;100585.34;5117993;28;8823;-61
2023/01/26 03:10:05;;;;;;;;;11.20;8.80;;;;;0.02;83.41;100584.44;5117067;28;8866;-59
2023/01/26 03:12:33;;;;;;;;;9.00;8.00;;;;;0.03;83.23;100573.06;5117880;28;9494;-59
2023/01/26 03:17:45;;;;;;;;;10.80;9.80;;;;;0.05;82.79;100571.28;5117975;28;8840;-60
2023/01/26 03:28:44;;;;;;;;;13.40;11.60;;;;;0.06;83.51;100580.84;5015541;28;8829;-59
2023/01/26 03:31:11;;;;;;;;;11.00;9.20;;;;;0.09;83.01;100575.53;5002250;28;8821;-61
2023/01/26 03:33:39;;;;;;;;;9.80;9.00;;;;;0.09;83.03;100583.38;5041945;28;8830;-60
2023/01/26 03:36:06;;;;;;;;;8.60;5.60;;;;;0.08;83.33;100576.44;5097314;28;8850;-59
2023/01/26 03:38:34;;;;;;;;;9.80;8.60;;;;;0.10;82.65;100579.03;5096813;28;8826;-60
2023/01/26 03:57:34;;;;;;;;;5.80;5.20;;;;;0.07;83.23;100579.06;5116841;28;8824;-61
2023/01/26 04:00:01;;;;;;;;;5.60;5.60;;;;;0.07;83.29;100577.34;5117097;28;8844;-59
2023/01/26 04:10:46;;;;;;;;;2.60;2.60;;;;;0.09;83.14;100575.53;5116812;28;8820;-60
2023/01/26 04:21:32;;;;;;;;;6.00;5.40;;;;;0.20;82.69;100576.09;5117116;28;8852;-59
2023/01/26 04:24:00;;;;;;;;;5.80;3.80;;;;;0.21;83.00;100574.31;5116564;28;8877;-58
2023/01/26 04:26:33;;;;;;;;;4.00;3.00;;;;;0.23;83.06;100577.78;5116601;28;8823;-59
2023/01/26 04:29:01;;;;;;;;;5.60;5.60;;;;;0.22;83.00;100574.28;5116681;28;8832;-60
2023/01/26 04:31:29;;;;;;;;;6.40;6.40;;;;;0.23;83.58;100576.00;5116155;28;8807;-61
2023/01/26 04:33:57;;;;;;;;;9.80;7.80;;;;;0.27;83.17;100575.03;5116369;28;8824;-59
2023/01/26 04:36:25;;;;;;;;;6.40;6.40;;;;;0.32;82.94;100577.53;5116692;28;8816;-60
2023/01/26 04:38:52;;;;;;;;;10.00;9.60;;;;;0.34;83.37;100579.19;5115755;28;8892;-58
2023/01/26 04:41:20;;;;;;;;;6.60;5.40;;;;;0.38;82.93;100564.25;5116143;28;8890;-59
2023/01/26 04:43:48;;;;;;;;;3.40;3.00;;;;;0.40;83.26;100571.16;5116332;28;8831;-61
2023/01/26 04:46:15;;;;;;;;;10.60;7.00;;;;;0.44;83.28;100567.56;5115628;28;8836;-60
2023/01/26 04:48:43;;;;;;;;;10.40;9.00;;;;;0.49;83.34;100576.16;5116067;28;8831;-59
2023/01/26 04:51:11;;;;;;;;;5.60;5.20;;;;;0.54;83.26;100569.00;5115735;28;8847;-59
2023/01/26 04:53:39;;;;;;;;;8.60;7.00;;;;;0.56;83.37;100572.44;5116073;28;8956;-59
2023/01/26 04:56:07;;;;;;;;;9.80;6.80;;;;;0.57;82.76;100562.81;5116170;28;8796;-59
2023/01/26 04:58:35;;;;;;;;;6.80;5.80;;;;;0.55;82.93;100572.47;5115907;28;8866;-61
2023/01/26 05:01:03;;;;;;;;;6.00;4.40;;;;;0.55;82.69;100569.88;5115798;28;8831;-60
2023/01/26 05:03:31;;;;;;;;;8.60;7.60;;;;;0.54;83.10;100569.00;5115998;28;8820;-59
2023/01/26 05:05:58;;;;;;;;;5.20;5.20;;;;;0.54;83.03;100569.00;5115592;28;8832;-61
2023/01/26 05:08:26;;;;;;;;;11.40;11.20;;;;;0.55;82.80;100562.00;5115841;28;8850;-59
2023/01/26 05:10:54;;;;;;;;;8.80;7.40;;;;;0.54;82.96;100553.28;5115174;28;8881;-59
2023/01/26 05:13:22;;;;;;;;;5.40;5.40;;;;;0.52;83.02;100552.47;5115737;28;8808;-59
2023/01/26 05:15:49;;;;;;;;;7.60;6.60;;;;;0.51;82.52;100557.75;5115388;28;8811;-59
2023/01/26 05:18:17;;;;;;;;;16.40;11.60;;;;;0.50;82.37;100559.53;5115950;28;8828;-58
2023/01/26 05:20:45;;;;;;;;;9.20;8.80;;;;;0.52;83.19;100555.09;5115217;28;8820;-59
2023/01/26 05:23:12;;;;;;;;;15.20;12.00;;;;;0.53;82.97;100554.19;5114732;28;8834;-59
2023/01/26 05:25:40;;;;;;;;;6.80;6.60;;;;;0.54;83.04;100558.50;5115563;28;8862;-58
2023/01/26 05:28:08;;;;;;;;;7.80;7.80;;;;;0.55;82.82;100559.38;5115438;28;8832;-59
2023/01/26 05:30:35;;;;;;;;;13.60;9.80;;;;;0.54;82.57;100563.75;5114634;28;8904;-59
2023/01/26 05:33:03;;;;;;;;;6.60;6.00;;;;;0.54;82.69;100558.50;5114163;28;8885;-59
2023/01/26 05:35:32;;;;;;;;;10.60;6.80;;;;;0.54;82.77;100563.75;5114334;28;8832;-59
2023/01/26 05:38:00;;;;;;;;;7.40;6.60;;;;;0.53;82.82;100563.81;5115282;28;8816;-60
2023/01/26 05:40:28;;;;;;;;;9.60;8.20;;;;;0.51;82.65;100569.09;5115266;28;8869;-61
2023/01/26 05:42:55;;;;;;;;;11.60;10.20;;;;;0.49;83.26;100572.66;5115067;28;8836;-61
2023/01/26 05:45:23;;;;;;;;;8.80;6.20;;;;;0.47;82.87;100572.69;5115029;28;8812;-60
2023/01/26 05:47:51;;;;;;;;;5.60;4.80;;;;;0.47;83.45;100575.31;5115235;28;8836;-60
2023/01/26 05:50:19;;;;;;;;;12.20;9.20;;;;;0.46;83.09;100570.13;5115364;28;8856;-61
2023/01/26 05:52:47;;;;;;;;;8.60;4.80;;;;;0.45;82.84;100573.63;5115398;28;8854;-60
2023/01/26 05:55:14;;;;;;;;;6.20;5.20;;;;;0.42;82.95;100573.72;5115467;28;8812;-59
2023/01/26 05:57:42;;;;;;;;;8.80;7.80;;;;;0.41;82.81;100572.00;5115340;28;9502;-59
2023/01/26 06:00:10;;;;;;;;;10.60;6.60;;;;;0.40;83.04;100575.53;5114928;28;8816;-60
2023/01/26 06:02:39;;;;;;;;;11.00;8.80;;;;;0.38;83.35;100572.97;5114937;28;8828;-59
2023/01/26 06:05:06;;;;;;;;;1.00;1.00;;;;;0.39;83.28;100576.44;5114665;28;8862;-61
2023/01/26 06:07:34;;;;;;;;;11.40;9.60;;;;;0.42;83.08;100577.22;5114636;28;8828;-59
2023/01/26 06:10:02;;;;;;;;;8.60;7.00;;;;;0.47;83.66;100580.53;5114138;28;8846;-61
2023/01/26 06:12:34;;;;;;;;;6.60;6.60;;;;;0.51;83.02;100578.69;5113600;28;8820;-60
2023/01/26 06:15:02;;;;;;;;;12.00;11.60;;;;;0.53;83.38;100582.16;5115017;28;8823;-61
2023/01/26 06:17:30;;;;;;;;;5.60;4.80;;;;;0.55;82.92;100586.41;5114990;28;8827;-61
2023/01/26 06:19:58;;;;;;;;;11.40;10.80;;;;;0.58;82.83;100577.63;5118060;28;8832;-60
2023/01/26 06:22:25;;;;;;;;;6.40;6.40;;;;;0.61;83.25;100582.78;5117745;28;8843;-61
2023/01/26 06:24:53;;;;;;;;;4.80;4.80;;;;;0.63;82.89;100581.81;5117102;28;8954;-60
2023/01/26 06:27:21;;;;;;;;;9.80;7.40;;;;;0.64;82.97;100580.94;5116908;28;8851;-61
2023/01/26 06:29:49;;;;;;;;;11.60;9.40;;;;;0.61;82.93;100581.00;5117136;28;8862;-59
2023/01/26 06:32:16;;;;;;;;;9.40;7.60;;;;;0.58;82.86;100581.09;5115935;28;8874;-59
2023/01/26 06:34:44;;;;;;;;;7.40;6.80;;;;;0.57;83.10;100582.00;5115985;28;8862;-58
2023/01/26 06:37:12;;;;;;;;;8.20;7.80;;;;;0.56;83.42;100576.81;5115392;28;8839;-59
2023/01/26 06:39:41;;;;;;;;;12.00;10.60;;;;;0.51;82.77;100584.81;5115897;28;8824;-59
2023/01/26 06:42:09;;;;;;;;;12.00;11.00;;;;;0.48;83.11;100584.03;5115914;28;8848;-58
2023/01/26 06:44:36;;;;;;;;;10.20;9.80;;;;;0.45;83.40;100584.09;5115948;28;9221;-60
2023/01/26 06:47:04;;;;;;;;;9.20;6.60;;;;;0.44;82.96;100588.50;5116336;28;8831;-59
2023/01/26 06:49:32;;;;;;;;;8.60;8.00;;;;;0.43;83.51;100594.66;5116371;28;8859;-57
2023/01/26 06:52:00;;;;;;;;;4.20;4.20;;;;;0.45;83.37;100595.44;5114626;28;8859;-59
2023/01/26 06:54:27;;;;;;;;;9.80;8.60;;;;;0.44;83.65;100593.75;5113713;28;8837;-58
2023/01/26 06:56:55;;;;;;;;;10.60;7.40;;;;;0.46;83.14;100588.47;5112773;28;8820;-59
2023/01/26 06:59:23;;;;;;;;;9.40;7.60;;;;;0.45;83.64;100594.56;5112601;28;8878;-59
2023/01/26 07:01:51;;;;;;;;;6.00;6.00;;;;;0.45;83.34;100595.44;5111666;28;8836;-58
2023/01/26 07:04:21;;;;;;;;;6.20;4.40;;;;;0.44;83.13;100596.38;5111395;28;9553;-59
2023/01/26 07:06:48;;;;;;;;;4.80;4.80;;;;;0.43;83.34;100599.88;5111896;28;8856;-59
2023/01/26 07:09:16;;;;;;;;;15.80;13.20;;;;;0.42;83.85;100598.16;5113751;28;8950;-59
2023/01/26 07:11:44;;;;;;;;;6.40;3.00;;;;;0.40;83.45;100592.09;5113261;28;8830;-60
2023/01/26 07:14:12;;;;;;;;;6.80;6.00;;;;;0.41;83.44;100587.72;5113577;28;8839;-60
2023/01/26 07:16:40;;;;;;;;;8.20;7.80;;;;;0.43;83.67;100586.78;5112657;28;8840;-58
2023/01/26 07:19:08;;;;;;;;;8.20;7.60;;;;;0.45;83.46;100584.97;5113804;28;8872;-59
2023/01/26 07:21:37;;;;;;;;;4.80;4.60;;;;;0.46;83.20;100578.84;5114535;28;9521;-59
2023/01/26 07:24:06;;;;;;;;;9.00;6.80;;;;;0.48;83.09;100578.78;5113531;28;8835;-59
2023/01/26 07:26:35;;;;;;;;;11.20;9.00;;;;;0.48;83.57;100581.41;5111793;28;8867;-60
2023/01/26 07:29:03;;;;;;;;;9.80;6.40;;;;;0.49;83.05;100580.50;5111789;28;8908;-60
2023/01/26 07:31:31;;;;;;;;;7.60;6.40;;;;;0.51;83.66;100578.69;5112465;28;8831;-59
2023/01/26 07:33:59;;;;;;;;;9.00;8.60;;;;;0.52;83.08;100575.16;5112580;28;8836;-60
2023/01/26 07:36:26;;;;;;;;;3.20;2.20;;;;;0.54;83.54;100584.72;5113234;28;9198;-60
2023/01/26 07:38:54;;;;;;;;;7.80;6.80;;;;;0.54;83.03;100571.59;5114515;28;8881;-59
2023/01/26 07:41:22;;;;;;;;;12.20;11.20;;;;;0.55;83.19;100573.31;5114677;28;8840;-59
2023/01/26 07:43:50;;;;;;;;;8.80;7.20;;;;;0.58;83.29;100581.09;5113909;28;8867;-58
2023/01/26 07:46:18;;;;;;;;;1.80;0.80;;;;;0.61;83.76;100580.16;5113871;28;9583;-59
2023/01/26 07:48:46;;;;;;;;;3.80;2.60;;;;;0.62;83.62;100577.47;5113650;28;8820;-59
2023/01/26 07:51:14;;;;;;;;;10.80;9.80;;;;;0.67;82.95;100580.84;5114316;28;8855;-59
2023/01/26 07:53:42;;;;;;;;;7.00;7.00;;;;;0.71;83.54;100587.69;5113576;28;8966;-59
2023/01/26 07:56:10;;;;;;;;;12.80;9.40;;;;;0.71;83.44;100586.84;5113291;28;8831;-59
2023/01/26 07:58:38;;;;;;;;;10.40;9.60;;;;;0.71;82.74;100587.69;5113590;28;8840;-59
2023/01/26 08:01:06;;;;;;;;;20.00;17.00;;;;;0.71;83.43;100589.47;5114028;28;8847;-59
2023/01/26 08:03:34;;;;;;;;;10.20;6.40;;;;;0.72;82.88;100585.94;5113228;28;8971;-58
2023/01/26 08:06:02;;;;;;;;;13.20;9.20;;;;;0.73;83.48;100595.50;5111991;28;8824;-59
2023/01/26 08:08:30;;;;;;;;;6.40;4.80;;;;;0.71;82.89;100598.16;5111979;28;8851;-59
2023/01/26 08:10:59;;;;;;;;;13.00;11.20;;;;;0.72;83.60;100592.03;5112927;28;8812;-58
2023/01/26 08:13:27;;;;;;;;;9.40;9.40;;;;;0.72;82.73;100589.44;5112908;28;8836;-59
2023/01/26 08:16:03;;;;;;;;;12.40;10.20;;;;;0.74;82.89;100594.59;5113196;28;8881;-59
2023/01/26 08:18:31;;;;;;;;;12.20;12.00;;;;;0.74;83.09;100584.13;5113192;28;8824;-60
2023/01/26 08:20:59;;;;;;;;;9.20;7.80;;;;;0.76;83.19;100603.28;5114306;28;8851;-61
2023/01/26 08:23:27;;;;;;;;;9.00;7.60;;;;;0.79;82.82;100596.19;5113755;28;8850;-59
2023/01/26 08:25:55;;;;;;;;;7.40;7.00;;;;;0.81;83.19;100598.75;5114242;28;8916;-61
2023/01/26 08:28:23;;;;;;;;;6.80;5.60;;;;;0.82;83.21;100606.59;5113378;28;9008;-61
2023/01/26 08:30:51;;;;;;;;;7.80;6.80;;;;;0.82;82.77;100596.09;5112830;28;8938;-59
2023/01/26 08:33:18;;;;;;;;;7.60;6.00;;;;;0.83;83.13;100600.44;5113801;28;8828;-58
2023/01/26 08:35:47;;;;;;;;;9.00;8.60;;;;;0.85;83.62;100603.03;5113342;28;8846;-59
2023/01/26 08:38:14;;;;;;;;;7.80;6.80;;;;;0.85;83.01;100603.84;5113150;28;8824;-60
2023/01/26 08:40:43;;;;;;;;;9.20;8.60;;;;;0.89;83.44;100607.25;5111526;28;8827;-59
2023/01/26 08:43:11;;;;;;;;;6.60;6.00;;;;;0.90;82.74;100606.34;5113514;28;8836;-61
2023/01/26 08:45:39;;;;;;;;;13.00;7.80;;;;;0.90;82.69;100607.22;5113136;28;8870;-59
2023/01/26 08:48:07;;;;;;;;;11.40;9.60;;;;;0.91;83.39;100613.31;5112031;28;8855;-60
2023/01/26 08:50:35;;;;;;;;;10.80;8.60;;;;;0.91;82.97;100619.41;5114025;28;8921;-61
2023/01/26 08:53:03;;;;;;;;;6.00;5.60;;;;;0.90;82.50;100615.06;5114118;28;8862;-59
2023/01/26 08:55:31;;;;;;;;;6.20;5.20;;;;;0.90;83.50;100620.31;5114348;28;8859;-59
2023/01/26 08:57:59;;;;;;;;;8.20;7.80;;;;;0.90;83.35;100622.94;5114408;28;8840;-59
2023/01/26 09:00:27;;;;;;;;;10.40;5.20;;;;;0.89;83.05;100615.97;5112574;28;8827;-59
2023/01/26 09:02:55;;;;;;;;;13.60;10.60;;;;;0.92;83.56;100617.66;5113381;28;8843;-61
2023/01/26 09:05:23;;;;;;;;;10.00;7.80;;;;;0.93;83.07;100619.38;5113550;28;8816;-59
2023/01/26 09:07:51;;;;;;;;;7.80;6.80;;;;;0.95;82.73;100620.19;5112164;28;8878;-59
2023/01/26 09:10:19;;;;;;;;;12.80;11.60;;;;;0.96;82.77;100625.38;5111996;28;8836;-59
2023/01/26 09:12:47;;;;;;;;;10.20;9.40;;;;;1.00;83.11;100627.00;5112255;28;8839;-59
2023/01/26 09:15:15;;;;;;;;;8.20;6.00;;;;;1.04;83.35;100626.00;5112763;28;8836;-61
2023/01/26 09:17:43;;;;;;;;;19.00;12.40;;;;;1.09;83.02;100629.34;5113324;28;9671;-59
2023/01/26 09:20:11;;;;;;;;;7.20;7.20;;;;;1.11;82.77;100627.53;5112714;28;8839;-61
2023/01/26 09:22:39;;;;;;;;;8.80;8.60;;;;;1.14;83.01;100619.56;5113110;28;8838;-61
2023/01/26 09:25:07;;;;;;;;;10.20;9.60;;;;;1.16;82.41;100628.22;5113737;28;8820;-61
2023/01/26 09:27:36;;;;;;;;;7.00;6.20;;;;;1.18;83.04;100621.19;5113380;28;8975;-61
2023/01/26 09:30:03;;;;;;;;;13.40;6.60;;;;;1.22;82.59;100622.81;5112703;28;8835;-61
2023/01/26 09:32:32;;;;;;;;;14.20;10.80;;;;;1.26;82.74;100619.19;5112036;28;8835;-60
2023/01/26 09:35:00;;;;;;;;;18.20;16.40;;;;;1.30;82.49;100620.81;5111288;28;8830;-61
2023/01/26 09:37:28;;;;;;;;;19.20;15.80;;;;;1.36;82.64;100620.63;5111642;28;8816;-62
2023/01/26 09:39:56;;;;;;;;;10.60;10.20;;;;;1.38;82.51;100624.03;5112385;28;8828;-61
2023/01/26 09:42:24;;;;;;;;;13.20;11.80;;;;;1.42;82.94;100625.69;5112148;28;8952;-61
2023/01/26 09:44:52;;;;;;;;;14.60;10.40;;;;;1.45;82.36;100628.19;5111003;28;8834;-59
2023/01/26 09:47:20;;;;;;;;;13.80;10.80;;;;;1.48;82.17;100632.47;5110755;28;8832;-59
2023/01/26 09:49:47;;;;;;;;;13.00;12.60;;;;;1.46;83.08;100626.44;5110212;28;8867;-60
2023/01/26 09:52:15;;;;;;;;;15.20;13.40;;;;;1.45;82.10;100622.94;5112882;28;8851;-61
2023/01/26 09:54:44;;;;;;;;;20.60;17.60;;;;;1.46;81.89;100629.91;5114650;28;8846;-61
2023/01/26 09:57:12;;;;;;;;;12.40;11.00;;;;;1.47;82.29;100621.16;5114715;28;8862;-61
2023/01/26 09:59:40;;;;;;;;;12.20;10.40;;;;;1.47;82.69;100621.16;5114889;28;9543;-61
2023/01/26 10:02:08;;;;;;;;;9.80;9.40;;;;;1.49;82.83;100616.69;5115632;28;8889;-61
2023/01/26 10:04:36;;;;;;;;;12.20;9.60;;;;;1.51;82.58;100621.91;5115932;28;8896;-60
2023/01/26 10:07:04;;;;;;;;;13.20;12.20;;;;;1.50;82.70;100617.53;5116057;28;8840;-59
2023/01/26 10:09:33;;;;;;;;;14.40;13.60;;;;;1.49;82.58;100616.69;5116057;28;9540;-60
2023/01/26 10:12:01;;;;;;;;;13.20;11.80;;;;;1.45;82.94;100609.81;5115282;28;8904;-58
2023/01/26 10:14:29;;;;;;;;;10.60;9.20;;;;;1.43;83.14;100603.78;5115111;28;8835;-61
2023/01/26 10:16:57;;;;;;;;;9.00;8.20;;;;;1.42;82.87;100603.81;5114523;28;8946;-61
2023/01/26 10:19:27;;;;;;;;;13.80;10.80;;;;;1.42;82.98;100603.81;5112965;28;8850;-60
2023/01/26 10:21:55;;;;;;;;;12.20;10.80;;;;;1.43;82.50;100601.16;5113022;28;8860;-61
2023/01/26 10:24:23;;;;;;;;;7.80;7.40;;;;;1.45;82.98;100606.34;5113892;28;8933;-61
2023/01/26 10:26:52;;;;;;;;;11.80;10.00;;;;;1.44;82.79;100605.50;5113070;28;8840;-60
2023/01/26 10:29:19;;;;;;;;;12.40;12.00;;;;;1.45;82.65;100611.59;5113595;28;8943;-60
2023/01/26 10:31:47;;;;;;;;;6.20;4.40;;;;;1.47;82.81;100607.16;5113030;28;8847;-60
2023/01/26 10:34:16;;;;;;;;;9.20;8.40;;;;;1.46;82.76;100606.28;5114109;28;8952;-61
2023/01/26 10:36:44;;;;;;;;;9.00;7.20;;;;;1.46;82.59;100600.19;5114261;28;8892;-61
2023/01/26 10:39:12;;;;;;;;;11.60;9.60;;;;;1.47;82.96;100601.91;5115057;28;8819;-60
2023/01/26 10:41:42;;;;;;;;;18.20;15.80;;;;;1.48;82.86;100601.88;5114185;28;8823;-61
2023/01/26 10:44:11;;;;;;;;;10.80;10.20;;;;;1.49;82.41;100597.47;5114687;28;8858;-61
2023/01/26 10:46:39;;;;;;;;;10.40;10.40;;;;;1.53;82.60;100589.44;5114819;28;8836;-58
2023/01/26 10:49:08;;;;;;;;;20.20;15.40;;;;;1.56;83.14;100599.84;5114710;28;9774;-61
2023/01/26 10:51:35;;;;;;;;;1.00;0.40;;;;;1.57;82.29;100593.69;5114704;28;8932;-60
2023/01/26 10:54:03;;;;;;;;;14.60;12.80;;;;;1.58;82.80;100599.78;5114363;28;8823;-61
2023/01/26 10:56:31;;;;;;;;;11.40;10.20;;;;;1.59;82.60;100585.78;5116466;28;8824;-61
2023/01/26 10:59:00;;;;;;;;;11.20;10.60;;;;;1.62;82.78;100583.91;5114277;28;8856;-59
2023/01/26 11:01:28;;;;;;;;;10.20;10.20;;;;;1.66;82.63;100592.53;5113610;28;9506;-61
2023/01/26 11:03:57;;;;;;;;;8.20;6.60;;;;;1.68;82.55;100585.47;5112714;28;8839;-61
2023/01/26 11:06:25;;;;;;;;;12.80;11.20;;;;;1.70;82.89;100575.78;5113533;28;8820;-61
2023/01/26 11:08:53;;;;;;;;;14.00;10.60;;;;;1.69;82.81;100572.31;5113004;28;8835;-58
2023/01/26 11:11:21;;;;;;;;;11.20;9.80;;;;;1.70;82.07;100568.75;5113151;28;8843;-59
2023/01/26 11:13:49;;;;;;;;;12.60;10.40;;;;;1.68;82.71;100570.56;5114325;28;9516;-60
2023/01/26 11:16:17;;;;;;;;;8.20;7.40;;;;;1.69;82.16;100572.31;5114283;28;8835;-59
2023/01/26 11:18:45;;;;;;;;;9.80;9.80;;;;;1.69;82.46;100568.81;5114046;28;8847;-60
2023/01/26 11:21:15;;;;;;;;;9.40;9.00;;;;;1.70;82.45;100574.00;5114370;28;8840;-62
2023/01/26 11:23:44;;;;;;;;;9.00;7.80;;;;;1.73;82.90;100566.03;5114546;28;8926;-60
2023/01/26 11:26:12;;;;;;;;;6.80;4.60;;;;;1.72;82.35;100564.31;5114376;28;8828;-60
2023/01/26 11:28:40;;;;;;;;;10.40;9.40;;;;;1.74;82.63;100565.09;5112527;28;8859;-60
2023/01/26 11:31:08;;;;;;;;;7.00;6.60;;;;;1.74;82.69;100565.09;5113590;28;8827;-61
2023/01/26 11:33:36;;;;;;;;;11.00;8.20;;;;;1.74;82.80;100574.78;5114052;28;8835;-61
2023/01/26 11:36:05;;;;;;;;;6.80;6.40;;;;;1.75;82.54;100565.97;5114482;28;8848;-61
2023/01/26 11:38:33;;;;;;;;;7.60;6.80;;;;;1.78;82.56;100552.75;5113496;28;8828;-59
2023/01/26 11:41:01;;;;;;;;;9.80;8.40;;;;;1.78;81.99;100558.88;5114070;28;8911;-59
2023/01/26 11:43:29;;;;;;;;;7.20;6.60;;;;;1.81;82.54;100561.38;5113847;28;8912;-60
2023/01/26 11:45:57;;;;;;;;;10.20;9.40;;;;;1.82;82.24;100557.81;5113612;28;8835;-59
2023/01/26 11:48:25;;;;;;;;;11.60;8.20;;;;;1.80;82.34;100554.41;5113543;28;8854;-59
2023/01/26 11:50:53;;;;;;;;;7.80;7.40;;;;;1.80;82.70;100554.41;5114636;28;8881;-59
2023/01/26 11:53:22;;;;;;;;;6.80;4.80;;;;;1.80;82.75;100548.28;5114146;28;8839;-58
2023/01/26 11:55:50;;;;;;;;;7.80;7.20;;;;;1.78;82.68;100545.75;5114891;28;8824;-59
2023/01/26 11:58:17;;;;;;;;;11.60;9.80;;;;;1.79;82.37;100547.44;5113641;28;8924;-59
2023/01/26 12:00:46;;;;;;;;;12.40;10.40;;;;;1.81;82.54;100550.88;5111939;28;8845;-60
2023/01/26 12:03:14;;;;;;;;;10.00;10.00;;;;;1.78;82.38;100548.38;5111735;28;8851;-59
2023/01/26 12:05:42;;;;;;;;;6.80;5.80;;;;;1.75;82.99;100547.59;5110970;28;9574;-58
2023/01/26 12:08:10;;;;;;;;;4.00;3.80;;;;;1.71;82.48;100545.97;5111714;28;9239;-59
2023/01/26 12:10:39;;;;;;;;;1.80;1.80;;;;;1.68;83.18;100539.06;5111940;28;8842;-59
2023/01/26 12:13:07;;;;;;;;;7.00;6.40;;;;;1.68;82.89;100535.59;5112436;28;8993;-59
2023/01/26 12:15:35;;;;;;;;;10.20;9.40;;;;;1.67;82.56;100534.72;5111381;28;8840;-58
2023/01/26 12:18:03;;;;;;;;;13.40;11.60;;;;;1.69;82.85;100537.31;5111449;28;8831;-60
2023/01/26 12:20:31;;;;;;;;;15.80;13.00;;;;;1.69;82.65;100530.31;5110455;28;8847;-58
2023/01/26 12:23:00;;;;;;;;;10.00;10.00;;;;;1.70;83.33;100531.16;5112145;28;8831;-59
2023/01/26 12:25:28;;;;;;;;;15.60;12.60;;;;;1.71;83.18;100530.22;5111056;28;8850;-58
2023/01/26 12:27:56;;;;;;;;;4.80;4.00;;;;;1.71;82.91;100538.97;5110414;28;8857;-59